sensor_id;sensor_type;location;lat;lon;timestamp;P1;durP1;ratioP1;P2;durP2;ratioP2
8572;SDS011;4324;42.012;24.872;2023-03-23T00:02:20;17.13;;;15.33;;
8572;SDS011;4324;42.012;24.872;2023-03-23T00:04:50;20.07;;;15.23;;
8572;SDS011;4324;42.012;24.872;2023-03-23T00:07:16;19.43;;;15.53;;
8572;SDS011;4324;42.012;24.872;2023-03-23T00:09:46;20.47;;;16.30;;
8572;SDS011;4324;42.012;24.872;2023-03-23T00:12:18;20.80;;;16.80;;
8572;SDS011;4324;42.012;24.872;2023-03-23T00:14:45;19.40;;;16.17;;
8572;SDS011;4324;42.012;24.872;2023-03-23T00:17:13;19.10;;;16.13;;
8572;SDS011;4324;42.012;24.872;2023-03-23T00:19:41;19.27;;;16.67;;
8572;SDS011;4324;42.012;24.872;2023-03-23T00:22:16;25.20;;;17.10;;
8572;SDS011;4324;42.012;24.872;2023-03-23T00:24:46;20.07;;;16.70;;
8572;SDS011;4324;42.012;24.872;2023-03-23T00:27:13;19.70;;;17.53;;
8572;SDS011;4324;42.012;24.872;2023-03-23T00:29:40;19.87;;;17.07;;
8572;SDS011;4324;42.012;24.872;2023-03-23T00:32:10;19.90;;;16.97;;
8572;SDS011;4324;42.012;24.872;2023-03-23T00:34:39;18.50;;;15.97;;
8572;SDS011;4324;42.012;24.872;2023-03-23T00:37:11;21.33;;;17.43;;
8572;SDS011;4324;42.012;24.872;2023-03-23T00:39:38;20.53;;;17.57;;
8572;SDS011;4324;42.012;24.872;2023-03-23T00:42:12;19.77;;;16.53;;
8572;SDS011;4324;42.012;24.872;2023-03-23T00:44:40;19.67;;;16.73;;
8572;SDS011;4324;42.012;24.872;2023-03-23T00:47:07;18.67;;;16.63;;
8572;SDS011;4324;42.012;24.872;2023-03-23T00:49:35;20.33;;;18.00;;
8572;SDS011;4324;42.012;24.872;2023-03-23T00:52:04;21.63;;;18.33;;
8572;SDS011;4324;42.012;24.872;2023-03-23T00:54:32;22.30;;;17.90;;
8572;SDS011;4324;42.012;24.872;2023-03-23T00:56:59;19.63;;;17.43;;
8572;SDS011;4324;42.012;24.872;2023-03-23T00:59:26;20.13;;;17.40;;
8572;SDS011;4324;42.012;24.872;2023-03-23T01:01:53;20.77;;;18.57;;
8572;SDS011;4324;42.012;24.872;2023-03-23T01:04:20;21.77;;;17.80;;
8572;SDS011;4324;42.012;24.872;2023-03-23T01:06:48;22.37;;;19.63;;
8572;SDS011;4324;42.012;24.872;2023-03-23T01:09:19;21.03;;;17.70;;
8572;SDS011;4324;42.012;24.872;2023-03-23T01:11:46;20.60;;;17.37;;
8572;SDS011;4324;42.012;24.872;2023-03-23T01:14:15;23.50;;;19.83;;
8572;SDS011;4324;42.012;24.872;2023-03-23T01:16:43;20.50;;;17.80;;
8572;SDS011;4324;42.012;24.872;2023-03-23T01:19:10;20.60;;;17.50;;
8572;SDS011;4324;42.012;24.872;2023-03-23T01:21:37;18.43;;;16.33;;
8572;SDS011;4324;42.012;24.872;2023-03-23T01:24:04;20.33;;;16.63;;
8572;SDS011;4324;42.012;24.872;2023-03-23T01:26:33;19.90;;;16.57;;
8572;SDS011;4324;42.012;24.872;2023-03-23T01:29:00;20.17;;;17.27;;
8572;SDS011;4324;42.012;24.872;2023-03-23T01:31:27;19.57;;;16.77;;
8572;SDS011;4324;42.012;24.872;2023-03-23T01:33:54;22.20;;;17.03;;
8572;SDS011;4324;42.012;24.872;2023-03-23T01:36:23;20.40;;;16.80;;
8572;SDS011;4324;42.012;24.872;2023-03-23T01:38:51;19.70;;;16.23;;
8572;SDS011;4324;42.012;24.872;2023-03-23T01:41:19;19.03;;;16.17;;
8572;SDS011;4324;42.012;24.872;2023-03-23T01:43:54;23.13;;;17.67;;
8572;SDS011;4324;42.012;24.872;2023-03-23T01:46:25;23.40;;;18.00;;
8572;SDS011;4324;42.012;24.872;2023-03-23T01:48:52;21.57;;;17.40;;
8572;SDS011;4324;42.012;24.872;2023-03-23T01:51:20;20.07;;;17.27;;
8572;SDS011;4324;42.012;24.872;2023-03-23T01:53:48;21.83;;;17.97;;
8572;SDS011;4324;42.012;24.872;2023-03-23T01:56:21;23.17;;;18.57;;
8572;SDS011;4324;42.012;24.872;2023-03-23T01:58:51;22.03;;;18.17;;
8572;SDS011;4324;42.012;24.872;2023-03-23T02:01:21;24.27;;;18.37;;
8572;SDS011;4324;42.012;24.872;2023-03-23T02:03:51;26.57;;;19.67;;
8572;SDS011;4324;42.012;24.872;2023-03-23T02:06:19;27.13;;;19.47;;
8572;SDS011;4324;42.012;24.872;2023-03-23T02:08:47;31.23;;;23.43;;
8572;SDS011;4324;42.012;24.872;2023-03-23T02:11:16;37.40;;;26.30;;
8572;SDS011;4324;42.012;24.872;2023-03-23T02:13:45;31.73;;;23.63;;
8572;SDS011;4324;42.012;24.872;2023-03-23T02:16:14;31.10;;;25.23;;
8572;SDS011;4324;42.012;24.872;2023-03-23T02:18:58;32.43;;;25.77;;
8572;SDS011;4324;42.012;24.872;2023-03-23T02:24:57;39.67;;;28.97;;
8572;SDS011;4324;42.012;24.872;2023-03-23T02:27:36;48.27;;;32.67;;
8572;SDS011;4324;42.012;24.872;2023-03-23T02:30:39;41.63;;;31.17;;
8572;SDS011;4324;42.012;24.872;2023-03-23T02:33:28;40.03;;;30.43;;
8572;SDS011;4324;42.012;24.872;2023-03-23T02:36:02;42.53;;;30.43;;
8572;SDS011;4324;42.012;24.872;2023-03-23T02:38:35;36.40;;;28.43;;
8572;SDS011;4324;42.012;24.872;2023-03-23T02:41:07;35.70;;;26.10;;
8572;SDS011;4324;42.012;24.872;2023-03-23T02:43:38;33.27;;;24.57;;
8572;SDS011;4324;42.012;24.872;2023-03-23T02:46:09;32.60;;;24.40;;
8572;SDS011;4324;42.012;24.872;2023-03-23T02:48:38;30.57;;;24.93;;
8572;SDS011;4324;42.012;24.872;2023-03-23T02:51:07;31.77;;;24.60;;
8572;SDS011;4324;42.012;24.872;2023-03-23T02:53:37;30.93;;;24.37;;
8572;SDS011;4324;42.012;24.872;2023-03-23T02:56:07;30.00;;;24.33;;
8572;SDS011;4324;42.012;24.872;2023-03-23T02:58:36;29.23;;;23.63;;
8572;SDS011;4324;42.012;24.872;2023-03-23T03:01:13;30.03;;;23.47;;
8572;SDS011;4324;42.012;24.872;2023-03-23T03:03:43;31.40;;;23.77;;
8572;SDS011;4324;42.012;24.872;2023-03-23T03:06:13;29.33;;;23.93;;
8572;SDS011;4324;42.012;24.872;2023-03-23T03:08:52;32.20;;;25.73;;
8572;SDS011;4324;42.012;24.872;2023-03-23T03:11:25;31.20;;;24.57;;
8572;SDS011;4324;42.012;24.872;2023-03-23T03:13:53;28.97;;;23.63;;
8572;SDS011;4324;42.012;24.872;2023-03-23T03:16:27;30.67;;;24.47;;
8572;SDS011;4324;42.012;24.872;2023-03-23T03:18:59;31.00;;;23.27;;
8572;SDS011;4324;42.012;24.872;2023-03-23T03:21:30;32.53;;;24.73;;
8572;SDS011;4324;42.012;24.872;2023-03-23T03:24:01;35.50;;;25.47;;
8572;SDS011;4324;42.012;24.872;2023-03-23T03:26:30;32.60;;;24.17;;
8572;SDS011;4324;42.012;24.872;2023-03-23T03:28:59;32.30;;;24.00;;
8572;SDS011;4324;42.012;24.872;2023-03-23T03:31:28;31.70;;;26.53;;
8572;SDS011;4324;42.012;24.872;2023-03-23T03:33:59;34.60;;;26.20;;
8572;SDS011;4324;42.012;24.872;2023-03-23T03:36:28;32.73;;;26.23;;
8572;SDS011;4324;42.012;24.872;2023-03-23T03:39:00;36.10;;;28.43;;
8572;SDS011;4324;42.012;24.872;2023-03-23T03:41:31;34.90;;;27.30;;
8572;SDS011;4324;42.012;24.872;2023-03-23T03:43:57;33.80;;;26.40;;
8572;SDS011;4324;42.012;24.872;2023-03-23T03:46:24;35.17;;;27.50;;
8572;SDS011;4324;42.012;24.872;2023-03-23T03:48:54;32.93;;;25.40;;
8572;SDS011;4324;42.012;24.872;2023-03-23T03:51:24;43.47;;;31.53;;
8572;SDS011;4324;42.012;24.872;2023-03-23T03:53:52;37.50;;;29.07;;
8572;SDS011;4324;42.012;24.872;2023-03-23T03:56:19;48.60;;;35.53;;
8572;SDS011;4324;42.012;24.872;2023-03-23T03:58:48;38.07;;;29.07;;
8572;SDS011;4324;42.012;24.872;2023-03-23T04:01:15;42.23;;;29.17;;
8572;SDS011;4324;42.012;24.872;2023-03-23T04:03:44;44.83;;;31.03;;
8572;SDS011;4324;42.012;24.872;2023-03-23T04:06:11;52.77;;;34.77;;
8572;SDS011;4324;42.012;24.872;2023-03-23T04:08:40;54.13;;;35.73;;
8572;SDS011;4324;42.012;24.872;2023-03-23T04:11:08;50.60;;;34.50;;
8572;SDS011;4324;42.012;24.872;2023-03-23T04:13:35;54.97;;;34.70;;
8572;SDS011;4324;42.012;24.872;2023-03-23T04:16:02;57.50;;;37.73;;
8572;SDS011;4324;42.012;24.872;2023-03-23T04:18:30;57.80;;;38.47;;
8572;SDS011;4324;42.012;24.872;2023-03-23T04:20:57;60.93;;;38.87;;
8572;SDS011;4324;42.012;24.872;2023-03-23T04:23:26;64.50;;;40.80;;
8572;SDS011;4324;42.012;24.872;2023-03-23T04:25:56;58.60;;;37.83;;
8572;SDS011;4324;42.012;24.872;2023-03-23T04:28:23;56.67;;;37.53;;
8572;SDS011;4324;42.012;24.872;2023-03-23T04:30:51;54.03;;;38.07;;
8572;SDS011;4324;42.012;24.872;2023-03-23T04:33:19;52.97;;;37.97;;
8572;SDS011;4324;42.012;24.872;2023-03-23T04:35:46;52.03;;;35.20;;
8572;SDS011;4324;42.012;24.872;2023-03-23T04:38:14;49.63;;;34.20;;
8572;SDS011;4324;42.012;24.872;2023-03-23T04:40:42;46.23;;;31.83;;
8572;SDS011;4324;42.012;24.872;2023-03-23T04:43:12;46.67;;;34.37;;
8572;SDS011;4324;42.012;24.872;2023-03-23T04:45:40;51.87;;;37.20;;
8572;SDS011;4324;42.012;24.872;2023-03-23T04:48:10;49.20;;;36.50;;
8572;SDS011;4324;42.012;24.872;2023-03-23T04:50:37;50.40;;;36.30;;
8572;SDS011;4324;42.012;24.872;2023-03-23T04:53:04;50.13;;;33.57;;
8572;SDS011;4324;42.012;24.872;2023-03-23T04:55:32;45.67;;;33.83;;
8572;SDS011;4324;42.012;24.872;2023-03-23T04:58:01;43.57;;;31.10;;
8572;SDS011;4324;42.012;24.872;2023-03-23T05:00:29;49.97;;;35.63;;
8572;SDS011;4324;42.012;24.872;2023-03-23T05:02:56;45.40;;;33.30;;
8572;SDS011;4324;42.012;24.872;2023-03-23T05:05:24;43.77;;;31.30;;
8572;SDS011;4324;42.012;24.872;2023-03-23T05:07:52;53.13;;;35.30;;
8572;SDS011;4324;42.012;24.872;2023-03-23T05:10:20;42.40;;;30.07;;
8572;SDS011;4324;42.012;24.872;2023-03-23T05:12:47;44.17;;;32.07;;
8572;SDS011;4324;42.012;24.872;2023-03-23T05:15:14;44.40;;;32.13;;
8572;SDS011;4324;42.012;24.872;2023-03-23T05:17:44;50.00;;;34.90;;
8572;SDS011;4324;42.012;24.872;2023-03-23T05:20:11;50.83;;;34.77;;
8572;SDS011;4324;42.012;24.872;2023-03-23T05:22:39;51.47;;;35.30;;
8572;SDS011;4324;42.012;24.872;2023-03-23T05:25:07;46.00;;;32.87;;
8572;SDS011;4324;42.012;24.872;2023-03-23T05:27:35;49.57;;;33.53;;
8572;SDS011;4324;42.012;24.872;2023-03-23T05:30:02;46.80;;;34.13;;
8572;SDS011;4324;42.012;24.872;2023-03-23T05:32:30;48.07;;;33.83;;
8572;SDS011;4324;42.012;24.872;2023-03-23T05:34:59;46.80;;;34.03;;
8572;SDS011;4324;42.012;24.872;2023-03-23T05:37:28;47.93;;;33.13;;
8572;SDS011;4324;42.012;24.872;2023-03-23T05:39:57;45.67;;;33.43;;
8572;SDS011;4324;42.012;24.872;2023-03-23T05:42:31;45.37;;;34.23;;
8572;SDS011;4324;42.012;24.872;2023-03-23T05:44:59;50.37;;;34.47;;
8572;SDS011;4324;42.012;24.872;2023-03-23T05:47:26;50.23;;;34.57;;
8572;SDS011;4324;42.012;24.872;2023-03-23T05:49:54;49.53;;;35.50;;
8572;SDS011;4324;42.012;24.872;2023-03-23T05:52:23;53.77;;;37.20;;
8572;SDS011;4324;42.012;24.872;2023-03-23T05:54:50;49.40;;;35.83;;
8572;SDS011;4324;42.012;24.872;2023-03-23T05:57:17;51.73;;;35.57;;
8572;SDS011;4324;42.012;24.872;2023-03-23T05:59:46;51.07;;;35.00;;
8572;SDS011;4324;42.012;24.872;2023-03-23T06:02:14;49.87;;;36.73;;
8572;SDS011;4324;42.012;24.872;2023-03-23T06:04:41;58.60;;;40.50;;
8572;SDS011;4324;42.012;24.872;2023-03-23T06:07:08;59.00;;;39.13;;
8572;SDS011;4324;42.012;24.872;2023-03-23T06:09:39;56.53;;;39.47;;
8572;SDS011;4324;42.012;24.872;2023-03-23T06:12:07;60.70;;;41.60;;
8572;SDS011;4324;42.012;24.872;2023-03-23T06:14:35;64.40;;;42.10;;
8572;SDS011;4324;42.012;24.872;2023-03-23T06:17:02;57.47;;;38.73;;
8572;SDS011;4324;42.012;24.872;2023-03-23T06:19:29;61.37;;;41.33;;
8572;SDS011;4324;42.012;24.872;2023-03-23T06:21:56;66.03;;;43.40;;
8572;SDS011;4324;42.012;24.872;2023-03-23T06:24:24;64.37;;;42.80;;
8572;SDS011;4324;42.012;24.872;2023-03-23T06:26:52;62.37;;;43.27;;
8572;SDS011;4324;42.012;24.872;2023-03-23T06:29:20;66.83;;;44.50;;
8572;SDS011;4324;42.012;24.872;2023-03-23T06:31:48;72.03;;;49.20;;
8572;SDS011;4324;42.012;24.872;2023-03-23T06:34:18;63.20;;;42.67;;
8572;SDS011;4324;42.012;24.872;2023-03-23T06:36:45;59.70;;;40.20;;
8572;SDS011;4324;42.012;24.872;2023-03-23T06:39:12;61.07;;;44.03;;
8572;SDS011;4324;42.012;24.872;2023-03-23T06:41:39;63.60;;;42.90;;
8572;SDS011;4324;42.012;24.872;2023-03-23T06:44:07;86.47;;;58.27;;
8572;SDS011;4324;42.012;24.872;2023-03-23T06:46:38;71.43;;;50.13;;
8572;SDS011;4324;42.012;24.872;2023-03-23T06:49:06;70.03;;;45.10;;
8572;SDS011;4324;42.012;24.872;2023-03-23T06:51:33;66.50;;;44.53;;
8572;SDS011;4324;42.012;24.872;2023-03-23T06:54:00;70.47;;;49.80;;
8572;SDS011;4324;42.012;24.872;2023-03-23T06:56:27;71.50;;;51.63;;
8572;SDS011;4324;42.012;24.872;2023-03-23T06:58:55;59.83;;;42.60;;
8572;SDS011;4324;42.012;24.872;2023-03-23T07:01:23;134.93;;;90.23;;
8572;SDS011;4324;42.012;24.872;2023-03-23T07:03:50;94.90;;;63.57;;
8572;SDS011;4324;42.012;24.872;2023-03-23T07:06:17;79.70;;;52.87;;
8572;SDS011;4324;42.012;24.872;2023-03-23T07:08:44;60.47;;;42.23;;
8572;SDS011;4324;42.012;24.872;2023-03-23T07:11:11;69.00;;;49.17;;
8572;SDS011;4324;42.012;24.872;2023-03-23T07:13:38;61.93;;;41.67;;
8572;SDS011;4324;42.012;24.872;2023-03-23T07:16:06;63.47;;;44.83;;
8572;SDS011;4324;42.012;24.872;2023-03-23T07:18:35;54.10;;;39.20;;
8572;SDS011;4324;42.012;24.872;2023-03-23T07:21:02;51.07;;;36.87;;
8572;SDS011;4324;42.012;24.872;2023-03-23T07:23:29;57.33;;;40.50;;
8572;SDS011;4324;42.012;24.872;2023-03-23T07:25:56;56.60;;;40.17;;
8572;SDS011;4324;42.012;24.872;2023-03-23T07:28:25;53.90;;;37.83;;
8572;SDS011;4324;42.012;24.872;2023-03-23T07:30:52;52.90;;;36.80;;
8572;SDS011;4324;42.012;24.872;2023-03-23T07:33:19;48.67;;;34.57;;
8572;SDS011;4324;42.012;24.872;2023-03-23T07:35:48;54.37;;;37.83;;
8572;SDS011;4324;42.012;24.872;2023-03-23T07:38:15;49.53;;;36.80;;
8572;SDS011;4324;42.012;24.872;2023-03-23T07:40:42;51.60;;;37.33;;
8572;SDS011;4324;42.012;24.872;2023-03-23T07:43:09;57.30;;;39.10;;
8572;SDS011;4324;42.012;24.872;2023-03-23T07:45:36;48.93;;;36.60;;
8572;SDS011;4324;42.012;24.872;2023-03-23T07:48:03;49.97;;;38.37;;
8572;SDS011;4324;42.012;24.872;2023-03-23T07:50:31;52.63;;;38.07;;
8572;SDS011;4324;42.012;24.872;2023-03-23T07:53:01;51.87;;;38.00;;
8572;SDS011;4324;42.012;24.872;2023-03-23T07:55:29;55.23;;;39.10;;
8572;SDS011;4324;42.012;24.872;2023-03-23T07:57:56;52.97;;;39.70;;
8572;SDS011;4324;42.012;24.872;2023-03-23T08:00:23;53.50;;;38.93;;
8572;SDS011;4324;42.012;24.872;2023-03-23T08:02:51;52.80;;;40.33;;
8572;SDS011;4324;42.012;24.872;2023-03-23T08:05:20;51.77;;;40.33;;
8572;SDS011;4324;42.012;24.872;2023-03-23T08:07:48;55.97;;;40.67;;
8572;SDS011;4324;42.012;24.872;2023-03-23T08:10:18;62.87;;;43.33;;
8572;SDS011;4324;42.012;24.872;2023-03-23T08:12:50;56.80;;;41.67;;
8572;SDS011;4324;42.012;24.872;2023-03-23T08:15:18;61.93;;;43.17;;
8572;SDS011;4324;42.012;24.872;2023-03-23T08:17:48;54.47;;;39.73;;
8572;SDS011;4324;42.012;24.872;2023-03-23T08:20:16;51.00;;;38.70;;
8572;SDS011;4324;42.012;24.872;2023-03-23T08:22:44;52.20;;;39.33;;
8572;SDS011;4324;42.012;24.872;2023-03-23T08:25:15;56.10;;;40.77;;
8572;SDS011;4324;42.012;24.872;2023-03-23T08:27:44;54.80;;;38.87;;
8572;SDS011;4324;42.012;24.872;2023-03-23T08:30:12;53.37;;;37.93;;
8572;SDS011;4324;42.012;24.872;2023-03-23T08:32:40;49.70;;;36.53;;
8572;SDS011;4324;42.012;24.872;2023-03-23T08:35:08;49.07;;;38.07;;
8572;SDS011;4324;42.012;24.872;2023-03-23T08:37:36;49.63;;;37.07;;
8572;SDS011;4324;42.012;24.872;2023-03-23T08:40:04;52.50;;;38.50;;
8572;SDS011;4324;42.012;24.872;2023-03-23T08:42:35;48.73;;;36.77;;
8572;SDS011;4324;42.012;24.872;2023-03-23T08:45:05;47.13;;;35.07;;
8572;SDS011;4324;42.012;24.872;2023-03-23T08:47:33;45.27;;;34.33;;
8572;SDS011;4324;42.012;24.872;2023-03-23T08:50:00;45.30;;;34.07;;
8572;SDS011;4324;42.012;24.872;2023-03-23T08:52:27;38.50;;;29.90;;
8572;SDS011;4324;42.012;24.872;2023-03-23T08:54:54;37.37;;;28.87;;
8572;SDS011;4324;42.012;24.872;2023-03-23T08:57:22;40.07;;;31.20;;
8572;SDS011;4324;42.012;24.872;2023-03-23T08:59:49;43.67;;;33.43;;
8572;SDS011;4324;42.012;24.872;2023-03-23T09:02:18;42.70;;;33.47;;
8572;SDS011;4324;42.012;24.872;2023-03-23T09:04:44;49.47;;;34.80;;
8572;SDS011;4324;42.012;24.872;2023-03-23T09:07:12;41.30;;;30.40;;
8572;SDS011;4324;42.012;24.872;2023-03-23T09:09:40;34.63;;;28.53;;
8572;SDS011;4324;42.012;24.872;2023-03-23T09:12:08;40.20;;;30.50;;
8572;SDS011;4324;42.012;24.872;2023-03-23T09:14:35;38.43;;;26.77;;
8572;SDS011;4324;42.012;24.872;2023-03-23T09:17:03;38.53;;;30.07;;
8572;SDS011;4324;42.012;24.872;2023-03-23T09:19:34;32.80;;;26.53;;
8572;SDS011;4324;42.012;24.872;2023-03-23T09:22:03;35.90;;;25.80;;
8572;SDS011;4324;42.012;24.872;2023-03-23T09:24:30;31.80;;;26.33;;
8572;SDS011;4324;42.012;24.872;2023-03-23T09:27:00;30.77;;;26.30;;
8572;SDS011;4324;42.012;24.872;2023-03-23T09:29:27;27.63;;;24.37;;
8572;SDS011;4324;42.012;24.872;2023-03-23T09:31:54;29.00;;;23.70;;
8572;SDS011;4324;42.012;24.872;2023-03-23T09:34:21;26.83;;;22.83;;
8572;SDS011;4324;42.012;24.872;2023-03-23T09:36:49;23.77;;;21.37;;
8572;SDS011;4324;42.012;24.872;2023-03-23T09:39:17;26.83;;;23.93;;
8572;SDS011;4324;42.012;24.872;2023-03-23T09:41:47;28.17;;;24.53;;
8572;SDS011;4324;42.012;24.872;2023-03-23T09:44:36;28.20;;;25.10;;
8572;SDS011;4324;42.012;24.872;2023-03-23T09:47:12;26.73;;;23.90;;
8572;SDS011;4324;42.012;24.872;2023-03-23T09:49:48;29.70;;;26.03;;
8572;SDS011;4324;42.012;24.872;2023-03-23T09:52:21;38.27;;;29.10;;
8572;SDS011;4324;42.012;24.872;2023-03-23T09:54:50;32.10;;;28.60;;
8572;SDS011;4324;42.012;24.872;2023-03-23T09:57:25;36.17;;;28.57;;
8572;SDS011;4324;42.012;24.872;2023-03-23T09:59:56;27.47;;;23.60;;
8572;SDS011;4324;42.012;24.872;2023-03-23T10:02:30;26.53;;;22.67;;
8572;SDS011;4324;42.012;24.872;2023-03-23T10:05:12;28.67;;;25.57;;
8572;SDS011;4324;42.012;24.872;2023-03-23T10:07:50;30.43;;;27.17;;
8572;SDS011;4324;42.012;24.872;2023-03-23T10:10:17;33.37;;;27.90;;
8572;SDS011;4324;42.012;24.872;2023-03-23T10:12:47;37.90;;;31.97;;
8572;SDS011;4324;42.012;24.872;2023-03-23T10:15:19;31.27;;;27.57;;
8572;SDS011;4324;42.012;24.872;2023-03-23T10:17:51;36.67;;;31.27;;
8572;SDS011;4324;42.012;24.872;2023-03-23T10:20:33;26.43;;;23.73;;
8572;SDS011;4324;42.012;24.872;2023-03-23T10:23:13;21.17;;;17.97;;
8572;SDS011;4324;42.012;24.872;2023-03-23T10:25:51;24.80;;;22.20;;
8572;SDS011;4324;42.012;24.872;2023-03-23T10:28:32;30.47;;;26.23;;
8572;SDS011;4324;42.012;24.872;2023-03-23T10:31:03;29.83;;;26.20;;
8572;SDS011;4324;42.012;24.872;2023-03-23T10:33:33;36.27;;;30.17;;
8572;SDS011;4324;42.012;24.872;2023-03-23T10:36:05;34.07;;;28.40;;
8572;SDS011;4324;42.012;24.872;2023-03-23T10:38:37;30.37;;;26.03;;
8572;SDS011;4324;42.012;24.872;2023-03-23T10:41:09;26.23;;;23.33;;
8572;SDS011;4324;42.012;24.872;2023-03-23T10:43:38;28.60;;;25.63;;
8572;SDS011;4324;42.012;24.872;2023-03-23T10:46:10;25.37;;;21.77;;
8572;SDS011;4324;42.012;24.872;2023-03-23T10:48:56;27.30;;;24.40;;
8572;SDS011;4324;42.012;24.872;2023-03-23T10:51:27;22.93;;;20.53;;
8572;SDS011;4324;42.012;24.872;2023-03-23T10:54:00;21.10;;;18.97;;
8572;SDS011;4324;42.012;24.872;2023-03-23T10:56:29;15.97;;;12.50;;
8572;SDS011;4324;42.012;24.872;2023-03-23T10:59:10;11.67;;;10.57;;
8572;SDS011;4324;42.012;24.872;2023-03-23T11:01:39;12.37;;;11.27;;
8572;SDS011;4324;42.012;24.872;2023-03-23T11:04:11;11.33;;;10.13;;
8572;SDS011;4324;42.012;24.872;2023-03-23T11:06:42;10.73;;;9.77;;
8572;SDS011;4324;42.012;24.872;2023-03-23T11:09:13;9.53;;;8.43;;
8572;SDS011;4324;42.012;24.872;2023-03-23T11:11:43;8.33;;;7.53;;
8572;SDS011;4324;42.012;24.872;2023-03-23T11:14:16;12.53;;;11.33;;
8572;SDS011;4324;42.012;24.872;2023-03-23T11:16:45;10.57;;;9.57;;
8572;SDS011;4324;42.012;24.872;2023-03-23T11:19:21;8.77;;;7.97;;
8572;SDS011;4324;42.012;24.872;2023-03-23T11:21:51;9.80;;;8.80;;
8572;SDS011;4324;42.012;24.872;2023-03-23T11:24:22;10.57;;;9.57;;
8572;SDS011;4324;42.012;24.872;2023-03-23T11:26:51;9.80;;;8.80;;
8572;SDS011;4324;42.012;24.872;2023-03-23T11:29:19;10.73;;;9.63;;
8572;SDS011;4324;42.012;24.872;2023-03-23T11:31:50;9.20;;;8.07;;
8572;SDS011;4324;42.012;24.872;2023-03-23T11:34:20;9.33;;;8.43;;
8572;SDS011;4324;42.012;24.872;2023-03-23T11:36:49;11.60;;;9.33;;
8572;SDS011;4324;42.012;24.872;2023-03-23T11:39:20;12.00;;;10.77;;
8572;SDS011;4324;42.012;24.872;2023-03-23T11:41:50;9.70;;;8.80;;
8572;SDS011;4324;42.012;24.872;2023-03-23T11:44:17;10.97;;;9.93;;
8572;SDS011;4324;42.012;24.872;2023-03-23T11:46:50;12.33;;;11.10;;
8572;SDS011;4324;42.012;24.872;2023-03-23T11:49:26;11.00;;;9.90;;
8572;SDS011;4324;42.012;24.872;2023-03-23T11:52:02;10.23;;;9.23;;
8572;SDS011;4324;42.012;24.872;2023-03-23T11:54:37;11.40;;;9.17;;
8572;SDS011;4324;42.012;24.872;2023-03-23T11:57:10;11.23;;;9.70;;
8572;SDS011;4324;42.012;24.872;2023-03-23T11:59:39;14.33;;;12.00;;
8572;SDS011;4324;42.012;24.872;2023-03-23T12:02:14;12.03;;;10.87;;
8572;SDS011;4324;42.012;24.872;2023-03-23T12:05:06;11.40;;;10.20;;
8572;SDS011;4324;42.012;24.872;2023-03-23T12:07:56;12.10;;;10.20;;
8572;SDS011;4324;42.012;24.872;2023-03-23T12:10:37;10.90;;;9.80;;
8572;SDS011;4324;42.012;24.872;2023-03-23T12:13:15;9.73;;;8.73;;
8572;SDS011;4324;42.012;24.872;2023-03-23T12:15:56;12.33;;;10.83;;
8572;SDS011;4324;42.012;24.872;2023-03-23T12:18:36;12.40;;;11.20;;
8572;SDS011;4324;42.012;24.872;2023-03-23T12:21:10;11.27;;;9.93;;
8572;SDS011;4324;42.012;24.872;2023-03-23T12:23:45;10.93;;;9.80;;
8572;SDS011;4324;42.012;24.872;2023-03-23T12:26:21;11.07;;;9.70;;
8572;SDS011;4324;42.012;24.872;2023-03-23T12:31:56;8.07;;;7.37;;
8572;SDS011;4324;42.012;24.872;2023-03-23T12:34:38;9.67;;;8.00;;
8572;SDS011;4324;42.012;24.872;2023-03-23T12:37:12;9.63;;;7.60;;
8572;SDS011;4324;42.012;24.872;2023-03-23T12:40:16;8.03;;;7.23;;
8572;SDS011;4324;42.012;24.872;2023-03-23T12:42:54;8.87;;;8.03;;
8572;SDS011;4324;42.012;24.872;2023-03-23T12:45:37;8.17;;;7.37;;
8572;SDS011;4324;42.012;24.872;2023-03-23T12:48:17;9.00;;;8.10;;
8572;SDS011;4324;42.012;24.872;2023-03-23T12:50:59;8.03;;;7.23;;
8572;SDS011;4324;42.012;24.872;2023-03-23T12:53:34;10.00;;;8.00;;
8572;SDS011;4324;42.012;24.872;2023-03-23T12:56:10;10.70;;;9.60;;
8572;SDS011;4324;42.012;24.872;2023-03-23T12:58:44;8.43;;;7.63;;
8572;SDS011;4324;42.012;24.872;2023-03-23T13:01:17;8.03;;;7.23;;
8572;SDS011;4324;42.012;24.872;2023-03-23T13:03:49;8.90;;;8.00;;
8572;SDS011;4324;42.012;24.872;2023-03-23T13:06:23;8.87;;;7.97;;
8572;SDS011;4324;42.012;24.872;2023-03-23T13:08:55;11.57;;;10.40;;
8572;SDS011;4324;42.012;24.872;2023-03-23T13:11:29;8.10;;;7.40;;
8572;SDS011;4324;42.012;24.872;2023-03-23T13:14:02;8.80;;;8.00;;
8572;SDS011;4324;42.012;24.872;2023-03-23T13:16:39;10.07;;;8.23;;
8572;SDS011;4324;42.012;24.872;2023-03-23T13:19:13;9.33;;;7.90;;
8572;SDS011;4324;42.012;24.872;2023-03-23T13:21:50;7.47;;;6.77;;
8572;SDS011;4324;42.012;24.872;2023-03-23T13:24:25;7.33;;;6.53;;
8572;SDS011;4324;42.012;24.872;2023-03-23T13:26:55;8.10;;;6.80;;
8572;SDS011;4324;42.012;24.872;2023-03-23T13:29:24;7.63;;;6.20;;
8572;SDS011;4324;42.012;24.872;2023-03-23T13:32:03;6.70;;;6.10;;
8572;SDS011;4324;42.012;24.872;2023-03-23T13:34:32;6.70;;;6.00;;
8572;SDS011;4324;42.012;24.872;2023-03-23T13:37:02;7.10;;;6.40;;
8572;SDS011;4324;42.012;24.872;2023-03-23T13:39:33;6.10;;;5.50;;
8572;SDS011;4324;42.012;24.872;2023-03-23T13:42:04;6.37;;;5.87;;
8572;SDS011;4324;42.012;24.872;2023-03-23T13:45:06;7.10;;;6.37;;
8572;SDS011;4324;42.012;24.872;2023-03-23T13:47:44;6.60;;;6.00;;
8572;SDS011;4324;42.012;24.872;2023-03-23T13:50:12;5.90;;;5.40;;
8572;SDS011;4324;42.012;24.872;2023-03-23T13:52:53;6.97;;;5.87;;
8572;SDS011;4324;42.012;24.872;2023-03-23T13:55:38;6.73;;;6.13;;
8572;SDS011;4324;42.012;24.872;2023-03-23T13:58:12;6.90;;;5.63;;
8572;SDS011;4324;42.012;24.872;2023-03-23T14:01:01;7.53;;;5.77;;
8572;SDS011;4324;42.012;24.872;2023-03-23T14:03:38;6.50;;;5.87;;
8572;SDS011;4324;42.012;24.872;2023-03-23T14:06:07;7.40;;;6.10;;
8572;SDS011;4324;42.012;24.872;2023-03-23T14:08:41;6.23;;;5.57;;
8572;SDS011;4324;42.012;24.872;2023-03-23T14:11:11;6.70;;;5.33;;
8572;SDS011;4324;42.012;24.872;2023-03-23T14:13:42;6.50;;;5.83;;
8572;SDS011;4324;42.012;24.872;2023-03-23T14:16:16;5.77;;;5.27;;
8572;SDS011;4324;42.012;24.872;2023-03-23T14:18:49;6.07;;;5.57;;
8572;SDS011;4324;42.012;24.872;2023-03-23T14:21:25;5.57;;;4.43;;
8572;SDS011;4324;42.012;24.872;2023-03-23T14:23:59;4.63;;;4.23;;
8572;SDS011;4324;42.012;24.872;2023-03-23T14:26:27;5.00;;;4.60;;
8572;SDS011;4324;42.012;24.872;2023-03-23T14:28:54;5.93;;;5.43;;
8572;SDS011;4324;42.012;24.872;2023-03-23T14:31:23;5.40;;;5.00;;
8572;SDS011;4324;42.012;24.872;2023-03-23T14:33:53;6.83;;;6.07;;
8572;SDS011;4324;42.012;24.872;2023-03-23T14:36:22;6.37;;;5.53;;
8572;SDS011;4324;42.012;24.872;2023-03-23T14:39:01;7.57;;;5.73;;
8572;SDS011;4324;42.012;24.872;2023-03-23T14:41:31;7.17;;;6.00;;
8572;SDS011;4324;42.012;24.872;2023-03-23T14:44:00;6.33;;;5.83;;
8572;SDS011;4324;42.012;24.872;2023-03-23T14:46:31;6.60;;;5.77;;
8572;SDS011;4324;42.012;24.872;2023-03-23T14:48:59;6.63;;;6.03;;
8572;SDS011;4324;42.012;24.872;2023-03-23T14:51:27;6.30;;;5.73;;
8572;SDS011;4324;42.012;24.872;2023-03-23T14:53:55;6.43;;;5.93;;
8572;SDS011;4324;42.012;24.872;2023-03-23T14:56:23;6.93;;;6.17;;
8572;SDS011;4324;42.012;24.872;2023-03-23T14:59:03;10.87;;;9.77;;
8572;SDS011;4324;42.012;24.872;2023-03-23T15:01:35;9.57;;;8.10;;
8572;SDS011;4324;42.012;24.872;2023-03-23T15:04:04;7.73;;;6.93;;
8572;SDS011;4324;42.012;24.872;2023-03-23T15:06:36;6.83;;;6.23;;
8572;SDS011;4324;42.012;24.872;2023-03-23T15:09:06;7.37;;;6.77;;